Skip Navigation

Christman Field Latest Observations

Switch to metric unitsOther observation timesWeekly graphs

Date Time
MST
Temp
°F
RH
%
DewPt
°F
Wind
mph
Dir
°
Gust
mph
Dir
°
Press
in Hg
Solar
W/m^2
Prec
in
2020-10-27 04:10 3.2 87.1 0.2 2.0 279 2.9 286 24.959 0.0 0.00
2020-10-27 04:05 2.9 87.2 -0.1 2.4 281 3.6 271 24.957 0.0 0.00
2020-10-27 04:00 1.5 87.5 -1.4 3.1 321 3.9 321 24.952 0.0 0.00
2020-10-27 03:55 0.4 85.0 -3.0 3.3 286 4.9 343 24.950 0.0 0.00
2020-10-27 03:50 1.5 83.8 -2.3 4.5 343 6.0 329 24.948 0.0 0.00
2020-10-27 03:45 2.0 85.8 -1.3 1.7 330 3.2 321 24.946 0.1 0.00
2020-10-27 03:40 1.5 86.3 -1.6 1.2 276 2.7 264 24.946 0.0 0.00
2020-10-27 03:35 1.5 85.3 -1.9 0.1 278 1.0 278 24.948 0.0 0.00
2020-10-27 03:30 1.3 85.7 -1.9 0.0 278 0.0 313 24.950 0.0 0.00
2020-10-27 03:25 1.5 86.3 -1.7 0.0 313 0.0 313 24.953 0.0 0.00
2020-10-27 03:20 1.2 85.9 -2.0 0.0 313 0.0 313 24.956 0.1 0.00
2020-10-27 03:15 0.8 86.0 -2.4 0.0 313 0.0 313 24.959 0.0 0.00
2020-10-27 03:10 0.1 85.6 -3.1 1.0 313 2.4 313 24.959 0.0 0.00
2020-10-27 03:05 0.2 84.6 -3.4 1.5 313 2.5 313 24.963 0.0 0.00
2020-10-27 03:00 -0.4 85.1 -3.8 1.7 294 2.1 294 24.965 0.0 0.00
2020-10-27 02:55 -0.5 85.5 -3.8 2.5 294 2.8 293 24.969 0.1 0.00
2020-10-27 02:50 -1.1 84.6 -4.6 1.4 293 2.5 293 24.970 0.1 0.00
2020-10-27 02:45 -1.2 84.4 -4.7 1.9 346 3.2 346 24.970 0.0 0.00
2020-10-27 02:40 -1.0 84.1 -4.7 3.5 346 3.9 352 24.973 0.0 0.00
2020-10-27 02:35 -0.6 84.0 -4.3 3.4 352 4.3 352 24.972 0.0 0.00
2020-10-27 02:30 -0.2 84.9 -3.7 1.9 336 2.5 336 24.971 0.0 0.00
2020-10-27 02:25 -0.4 85.1 -3.8 1.3 336 2.1 336 24.973 0.0 0.00
2020-10-27 02:20 -0.7 84.8 -4.2 0.5 336 1.8 336 24.978 0.0 0.00
2020-10-27 02:15 -0.9 84.9 -4.4 2.1 336 3.1 312 24.979 0.0 0.00
2020-10-27 02:10 -1.3 84.9 -4.7 0.7 312 2.7 312 24.981 0.0 0.00
2020-10-27 02:05 -1.4 84.3 -5.0 1.7 2 2.6 3 24.981 0.0 0.00
2020-10-27 02:00 -1.4 84.7 -4.8 3.1 2 4.0 343 24.980 0.0 0.00
2020-10-27 01:55 -1.7 84.0 -5.3 2.6 340 3.5 340 24.980 0.0 0.00
2020-10-27 01:50 -0.7 83.3 -4.5 4.4 350 6.3 350 24.981 0.0 0.00
2020-10-27 01:45 -0.3 84.0 -4.0 0.6 325 4.2 325 24.976 0.0 0.00